sim
Sign-in with your pilot id or email,
or register
Callsign
Passwort

Schedule Details

Flight Number: OEO4781
Departure: Alicante Airport (LEAL) at 09:25
Arrival: Munich Airport (EDDM) at 11:50

Weather Information
Getting current METAR information for LEAL 222000Z 03003KT 360V070 CAVOK 24/19 Q1013 NOSIG
Getting current METAR information for EDDM 221950Z VRB01KT CAVOK 17/15 Q1010 NOSIG

Schedule Frequency

Route Map